createdAt,value
2018-07-19T00:00:41.944Z,3.87
2018-07-19T00:03:10.164Z,3.67
2018-07-19T00:05:38.626Z,3.77
2018-07-19T00:08:11.216Z,4.23
2018-07-19T00:10:39.333Z,4.00
2018-07-19T00:13:07.729Z,4.57
2018-07-19T00:15:37.009Z,4.53
2018-07-19T00:18:05.311Z,3.80
2018-07-19T00:20:35.017Z,4.73
2018-07-19T00:23:03.842Z,4.20
2018-07-19T00:25:32.753Z,4.00
2018-07-19T00:28:01.573Z,4.53
2018-07-19T00:30:31.026Z,4.17
2018-07-19T00:32:59.991Z,4.70
2018-07-19T00:35:28.417Z,4.33
2018-07-19T00:38:00.429Z,4.53
2018-07-19T00:40:28.532Z,4.43
2018-07-19T00:42:56.907Z,4.80
2018-07-19T00:45:26.237Z,4.80
2018-07-19T00:47:54.798Z,5.13
2018-07-19T00:50:23.186Z,4.37
2018-07-19T00:52:51.341Z,5.30
2018-07-19T00:55:19.474Z,5.40
2018-07-19T00:57:48.149Z,5.30
2018-07-19T01:00:16.284Z,5.30
2018-07-19T01:02:44.401Z,5.13
2018-07-19T01:05:18.170Z,5.17
2018-07-19T01:07:46.502Z,4.97
2018-07-19T01:10:21.455Z,4.77
2018-07-19T01:12:49.841Z,5.83
2018-07-19T01:15:21.885Z,5.50
2018-07-19T01:17:50.063Z,5.60
2018-07-19T01:20:25.166Z,5.50
2018-07-19T01:22:53.330Z,6.27
2018-07-19T01:25:26.461Z,5.93
2018-07-19T01:27:55.684Z,5.53
2018-07-19T01:30:28.257Z,5.10
2018-07-19T01:32:56.464Z,5.57
2018-07-19T01:35:29.329Z,5.50
2018-07-19T01:37:58.156Z,5.63
2018-07-19T01:42:59.772Z,6.67
2018-07-19T01:45:28.202Z,5.60
2018-07-19T01:47:56.480Z,5.37
2018-07-19T01:50:24.956Z,6.03
2018-07-19T01:52:53.202Z,5.70
2018-07-19T01:55:21.336Z,6.00
2018-07-19T01:57:49.602Z,5.83
2018-07-19T02:00:18.049Z,5.63
2018-07-19T02:02:46.733Z,6.37
2018-07-19T02:05:14.926Z,6.20
2018-07-19T02:07:46.947Z,5.87
2018-07-19T02:10:15.353Z,6.20
2018-07-19T02:12:48.745Z,5.87
2018-07-19T02:15:16.885Z,5.90
2018-07-19T02:17:45.022Z,5.53
2018-07-19T02:20:13.502Z,6.27
2018-07-19T02:22:42.157Z,6.10
2018-07-19T02:25:10.289Z,6.13
2018-07-19T02:27:38.413Z,5.93
2018-07-19T02:30:06.978Z,6.33
2018-07-19T02:32:35.141Z,6.17
2018-07-19T02:35:03.308Z,5.90
2018-07-19T02:37:31.753Z,6.33
2018-07-19T02:40:04.925Z,6.10
2018-07-19T02:42:33.075Z,6.23
2018-07-19T02:47:43.525Z,6.07
2018-07-19T02:50:12.141Z,5.80
2018-07-19T02:52:40.270Z,6.07
2018-07-19T02:55:13.649Z,6.03
2018-07-19T02:57:41.945Z,6.67
2018-07-19T03:00:15.451Z,6.23
2018-07-19T03:02:44.065Z,6.13
2018-07-19T03:05:12.209Z,8.00
2018-07-19T03:07:40.387Z,8.03
2018-07-19T03:10:08.765Z,6.57
2018-07-19T03:12:36.937Z,6.93
2018-07-19T03:15:06.143Z,6.20
2018-07-19T03:17:34.974Z,6.40
2018-07-19T03:20:04.155Z,6.43
2018-07-19T03:22:32.386Z,6.43
2018-07-19T03:25:01.112Z,6.63
2018-07-19T03:27:29.241Z,6.67
2018-07-19T03:29:57.394Z,6.80
2018-07-19T03:32:30.038Z,6.50
2018-07-19T03:34:58.169Z,6.30
2018-07-19T03:37:31.080Z,6.70
2018-07-19T03:39:59.534Z,7.40
2018-07-19T03:42:27.766Z,7.87
2018-07-19T03:44:55.917Z,7.47
2018-07-19T03:47:24.319Z,7.33
2018-07-19T03:52:27.632Z,7.00
2018-07-19T03:54:55.760Z,7.70
2018-07-19T03:57:23.949Z,8.27
2018-07-19T03:59:52.662Z,7.67
2018-07-19T04:02:20.781Z,7.70
2018-07-19T04:04:48.933Z,7.53
2018-07-19T04:07:17.361Z,7.17
2018-07-19T04:09:49.421Z,7.77
2018-07-19T04:12:17.544Z,7.33
2018-07-19T04:14:54.921Z,7.67
2018-07-19T04:17:23.044Z,7.37
2018-07-19T04:19:54.774Z,7.37
2018-07-19T04:22:23.001Z,7.87
2018-07-19T04:24:57.992Z,8.07
2018-07-19T04:27:26.423Z,7.27
2018-07-19T04:30:01.507Z,7.50
2018-07-19T04:32:29.709Z,7.70
2018-07-19T04:35:11.094Z,8.37
2018-07-19T04:37:39.474Z,7.70
2018-07-19T04:40:07.650Z,8.60
2018-07-19T04:42:35.925Z,8.63
2018-07-19T04:45:09.085Z,8.67
2018-07-19T04:47:37.642Z,8.17
2018-07-19T04:50:10.905Z,8.07
2018-07-19T04:52:39.077Z,7.73
2018-07-19T04:55:12.882Z,7.77
2018-07-19T04:57:41.137Z,7.83
2018-07-19T05:02:42.822Z,7.43
2018-07-19T05:05:11.573Z,7.00
2018-07-19T05:07:40.005Z,8.60
2018-07-19T05:10:08.897Z,8.10
2018-07-19T05:12:37.324Z,8.37
2018-07-19T05:15:05.609Z,9.83
2018-07-19T05:17:34.045Z,8.77
2018-07-19T05:20:02.537Z,8.77
2018-07-19T05:22:30.898Z,8.77
2018-07-19T05:25:00.152Z,8.60
2018-07-19T05:27:30.166Z,8.10
2018-07-19T05:29:59.103Z,7.33
2018-07-19T05:32:31.549Z,7.80
2018-07-19T05:34:59.878Z,7.40
2018-07-19T05:37:32.947Z,6.90
2018-07-19T05:40:01.515Z,7.50
2018-07-19T05:42:35.235Z,7.80
2018-07-19T05:45:03.394Z,7.60
2018-07-19T05:47:36.556Z,6.87
2018-07-19T05:50:04.825Z,7.33
2018-07-19T05:52:33.152Z,8.10
2018-07-19T05:55:01.898Z,8.40
2018-07-19T05:57:30.975Z,8.07
2018-07-19T05:59:59.533Z,7.77
2018-07-19T06:02:28.440Z,7.03
2018-07-19T06:04:56.788Z,7.90
2018-07-19T06:07:25.221Z,8.57
2018-07-19T06:09:53.853Z,7.80
2018-07-19T06:16:57.940Z,7.00
2018-07-19T06:19:26.607Z,7.87
2018-07-19T06:21:56.453Z,7.65
2018-07-19T06:24:25.676Z,7.53
2018-07-19T06:27:00.630Z,7.97
2018-07-19T06:29:29.338Z,8.10
2018-07-19T06:32:02.809Z,8.18
2018-07-19T06:34:31.561Z,8.23
2018-07-19T06:37:04.538Z,8.60
2018-07-19T06:39:33.058Z,8.13
2018-07-19T06:42:01.677Z,8.00
2018-07-19T06:44:30.435Z,9.15
2018-07-19T06:46:59.154Z,9.20
2018-07-19T06:49:29.213Z,8.43
2018-07-19T06:51:58.633Z,8.80
2018-07-19T06:54:29.188Z,10.13
2018-07-19T06:56:58.497Z,10.35
2018-07-19T06:59:26.642Z,9.90
2018-07-19T07:01:55.542Z,9.00
2018-07-19T07:04:23.763Z,9.65
2018-07-19T07:06:53.312Z,9.43
2018-07-19T07:09:26.491Z,9.60
2018-07-19T07:11:55.154Z,9.60
2018-07-19T07:14:27.126Z,9.00
2018-07-19T07:16:56.027Z,10.10
2018-07-19T07:19:27.728Z,10.43
2018-07-19T07:21:55.856Z,9.77
2018-07-19T07:24:29.821Z,9.18
2018-07-19T07:26:58.423Z,10.45
2018-07-19T07:29:31.231Z,10.15
2018-07-19T07:34:07.277Z,9.03
2018-07-19T07:36:37.512Z,9.50
2018-07-19T07:39:08.621Z,8.15
2018-07-19T07:41:40.757Z,9.50
2018-07-19T07:44:09.083Z,9.05
2018-07-19T07:46:50.253Z,9.03
2018-07-19T07:49:19.415Z,8.15
2018-07-19T07:51:48.151Z,7.87
2018-07-19T07:54:16.938Z,7.57
2018-07-19T07:56:46.687Z,8.20
2018-07-19T07:59:14.890Z,7.12
2018-07-19T08:01:48.289Z,8.00
2018-07-19T08:04:20.217Z,7.87
2018-07-19T08:06:51.635Z,6.90
2018-07-19T08:09:19.778Z,5.80
2018-07-19T08:12:02.573Z,6.15
2018-07-19T08:14:30.754Z,6.17
2018-07-19T08:16:59.367Z,5.45
2018-07-19T08:19:27.517Z,5.60
2018-07-19T08:21:59.505Z,5.95
2018-07-19T08:24:28.145Z,5.58
2018-07-19T08:27:00.603Z,6.10
2018-07-19T08:29:29.401Z,5.30
2018-07-19T08:34:33.602Z,5.97
2018-07-19T08:37:10.084Z,5.45
2018-07-19T08:39:39.530Z,5.92
2018-07-19T08:42:20.396Z,5.03
2018-07-19T08:44:49.075Z,4.37
2018-07-19T08:47:18.097Z,4.67
2018-07-19T08:49:47.478Z,4.55
2018-07-19T08:52:18.652Z,5.05
2018-07-19T08:54:46.893Z,4.70
2018-07-19T08:57:19.312Z,5.22
2018-07-19T08:59:47.794Z,4.85
2018-07-19T09:02:28.551Z,5.20
2018-07-19T09:04:57.421Z,3.90
2018-07-19T09:07:25.573Z,4.85
2018-07-19T09:09:56.742Z,4.55
2018-07-19T09:12:26.581Z,4.70
2018-07-19T09:14:55.746Z,4.60
2018-07-19T09:17:36.874Z,4.60
2018-07-19T09:20:05.859Z,4.67
2018-07-19T09:22:36.150Z,5.22
2018-07-19T09:25:04.816Z,4.55
2018-07-19T09:27:34.110Z,5.47
2018-07-19T09:30:02.800Z,5.17
2018-07-19T09:32:44.657Z,5.25
2018-07-19T09:35:13.884Z,5.33
2018-07-19T09:37:42.095Z,5.83
2018-07-19T09:40:11.161Z,5.20
2018-07-19T09:42:41.169Z,4.67
2018-07-19T09:45:09.959Z,5.60
2018-07-19T09:47:45.461Z,5.50
2018-07-19T09:50:14.100Z,5.78
2018-07-19T09:52:47.351Z,5.15
2018-07-19T09:55:15.489Z,5.15
2018-07-19T09:57:48.931Z,5.45
2018-07-19T10:00:22.198Z,5.10
2018-07-19T10:02:52.142Z,5.70
2018-07-19T10:05:21.172Z,4.67
2018-07-19T10:08:02.827Z,5.00
2018-07-19T10:10:32.195Z,4.70
2018-07-19T10:13:01.475Z,4.12
2018-07-19T10:15:33.101Z,4.65
2018-07-19T10:18:02.101Z,4.35
2018-07-19T10:20:33.115Z,4.95
2018-07-19T10:23:02.161Z,4.42
2018-07-19T10:25:32.163Z,4.12
2018-07-19T10:28:05.509Z,4.10
2018-07-19T10:30:33.832Z,4.40
2018-07-19T10:33:07.418Z,4.10
2018-07-19T10:35:36.211Z,3.92
2018-07-19T10:38:06.745Z,3.83
2018-07-19T10:40:55.349Z,4.45
2018-07-19T10:43:25.617Z,3.85
2018-07-19T10:45:56.156Z,3.80
2018-07-19T10:48:26.036Z,4.10
2018-07-19T10:50:54.581Z,4.08
2018-07-19T10:53:25.119Z,3.85
2018-07-19T10:55:55.368Z,3.77
2018-07-19T10:58:24.388Z,3.80
2018-07-19T11:00:55.182Z,3.22
2018-07-19T11:03:23.330Z,3.92
2018-07-19T11:05:56.270Z,4.97
2018-07-19T11:08:24.833Z,4.03
2018-07-19T11:10:53.967Z,3.62
2018-07-19T11:13:27.357Z,4.40
2018-07-19T11:15:56.601Z,4.17
2018-07-19T11:18:29.433Z,4.15
2018-07-19T11:20:58.311Z,3.67
2018-07-19T11:23:33.693Z,4.08
2018-07-19T11:26:02.558Z,3.95
2018-07-19T11:28:34.563Z,4.28
2018-07-19T11:31:03.543Z,3.67
2018-07-19T11:33:38.798Z,3.15
2018-07-19T11:36:08.394Z,4.40
2018-07-19T11:38:40.866Z,4.47
2018-07-19T11:41:09.802Z,4.03
2018-07-19T11:43:41.517Z,4.60
2018-07-19T11:46:09.722Z,4.12
2018-07-19T11:48:42.896Z,4.15
2018-07-19T11:51:11.317Z,3.85
2018-07-19T11:53:45.368Z,3.70
2018-07-19T11:56:14.092Z,4.28
2018-07-19T11:58:43.509Z,4.00
2018-07-19T12:01:13.695Z,3.90
2018-07-19T12:03:42.282Z,4.10
2018-07-19T12:06:10.410Z,4.30
2018-07-19T12:08:38.745Z,3.67
2018-07-19T12:11:09.441Z,4.30
2018-07-19T12:13:38.254Z,4.50
2018-07-19T12:16:07.149Z,3.70
2018-07-19T12:18:36.557Z,4.10
2018-07-19T12:21:05.137Z,4.12
2018-07-19T12:23:34.130Z,4.17
2018-07-19T12:26:15.688Z,4.30
2018-07-19T12:28:44.157Z,4.40
2018-07-19T12:31:13.160Z,3.70
2018-07-19T12:36:16.482Z,4.00
2018-07-19T12:38:45.141Z,5.08
2018-07-19T12:41:13.555Z,4.37
2018-07-19T12:43:41.810Z,5.00
2018-07-19T12:46:18.166Z,4.15
2018-07-19T12:48:46.557Z,4.72
2018-07-19T12:51:20.119Z,4.00
2018-07-19T12:53:49.431Z,3.80
2018-07-19T12:56:21.617Z,3.80
2018-07-19T12:58:52.670Z,4.10
2018-07-19T13:01:24.160Z,3.90
2018-07-19T13:03:52.905Z,3.95
2018-07-19T13:06:25.991Z,3.90
2018-07-19T13:08:55.458Z,3.67
2018-07-19T13:11:37.619Z,3.98
2018-07-19T13:14:08.503Z,3.50
2018-07-19T13:16:36.949Z,4.30
2018-07-19T13:19:05.581Z,4.35
2018-07-19T13:21:34.212Z,4.05
2018-07-19T13:24:02.558Z,3.42
2018-07-19T13:26:35.176Z,3.65
2018-07-19T13:29:06.444Z,4.33
2018-07-19T13:31:38.583Z,4.05
2018-07-19T13:34:06.740Z,3.83
2018-07-19T13:36:41.006Z,3.92
2018-07-19T13:39:09.697Z,5.40
2018-07-19T13:41:44.323Z,4.20
2018-07-19T13:44:13.082Z,3.85
2018-07-19T13:46:47.559Z,3.55
2018-07-19T13:49:15.792Z,4.85
2018-07-19T13:51:47.425Z,4.12
2018-07-19T13:54:21.162Z,3.67
2018-07-19T13:56:51.373Z,3.75
2018-07-19T13:59:19.562Z,4.35
2018-07-19T14:01:52.625Z,4.45
2018-07-19T14:04:21.208Z,3.72
2018-07-19T14:06:53.635Z,4.20
2018-07-19T14:09:22.102Z,3.90
2018-07-19T14:11:51.480Z,3.98
2018-07-19T14:14:21.785Z,4.35
2018-07-19T14:16:50.174Z,4.28
2018-07-19T14:19:18.625Z,5.22
2018-07-19T14:21:46.789Z,5.03
2018-07-19T14:24:15.678Z,4.33
2018-07-19T14:26:44.533Z,3.95
2018-07-19T14:29:12.981Z,3.95
2018-07-19T14:31:43.173Z,4.67
2018-07-19T14:34:13.858Z,4.55
2018-07-19T14:36:42.286Z,4.22
2018-07-19T14:39:13.941Z,4.42
2018-07-19T14:41:44.560Z,4.35
2018-07-19T14:47:00.339Z,4.08
2018-07-19T14:49:59.416Z,4.30
2018-07-19T14:52:28.065Z,3.80
2018-07-19T14:54:57.177Z,4.10
2018-07-19T14:57:25.305Z,3.70
2018-07-19T14:59:53.966Z,3.60
2018-07-19T15:02:25.527Z,4.20
2018-07-19T15:04:54.390Z,4.40
2018-07-19T15:07:27.779Z,3.85
2018-07-19T15:09:56.107Z,3.90
2018-07-19T15:12:28.322Z,5.08
2018-07-19T15:14:56.959Z,4.30
2018-07-19T15:17:31.730Z,3.60
2018-07-19T15:20:01.841Z,4.00
2018-07-19T15:22:42.589Z,3.77
2018-07-19T15:25:10.733Z,4.20
2018-07-19T15:27:44.910Z,4.22
2018-07-19T15:30:14.053Z,3.75
2018-07-19T15:32:42.281Z,4.40
2018-07-19T15:35:12.693Z,4.30
2018-07-19T15:37:42.186Z,4.20
2018-07-19T15:40:14.758Z,4.42
2018-07-19T15:42:47.067Z,3.45
2018-07-19T15:45:17.156Z,4.45
2018-07-19T15:47:48.828Z,3.87
2018-07-19T15:50:18.133Z,3.83
2018-07-19T15:52:50.331Z,3.92
2018-07-19T15:55:18.636Z,3.85
2018-07-19T15:57:53.633Z,3.75
2018-07-19T16:00:22.469Z,3.77
2018-07-19T16:02:55.709Z,3.87
2018-07-19T16:05:24.265Z,4.33
2018-07-19T16:08:00.480Z,4.10
2018-07-19T16:10:28.948Z,4.20
2018-07-19T16:13:01.123Z,3.92
2018-07-19T16:15:29.553Z,3.70
2018-07-19T16:18:02.851Z,4.33
2018-07-19T16:20:31.443Z,4.22
2018-07-19T16:23:04.054Z,4.22
2018-07-19T16:25:32.240Z,4.30
2018-07-19T16:28:01.358Z,6.22
2018-07-19T16:30:30.348Z,4.33
2018-07-19T16:32:59.528Z,4.03
2018-07-19T16:35:29.184Z,4.45
2018-07-19T16:37:58.170Z,4.67
2018-07-19T16:40:26.826Z,4.22
2018-07-19T16:42:56.104Z,4.42
2018-07-19T16:45:25.143Z,3.80
2018-07-19T16:47:53.873Z,4.10
2018-07-19T16:50:22.077Z,5.05
2018-07-19T16:52:50.911Z,6.42
2018-07-19T16:55:31.686Z,4.47
2018-07-19T16:58:00.511Z,4.05
2018-07-19T17:00:28.633Z,4.25
2018-07-19T17:02:57.078Z,4.33
2018-07-19T17:05:28.149Z,4.37
2018-07-19T17:07:56.806Z,4.65
2018-07-19T17:10:32.290Z,4.70
2018-07-19T17:13:01.122Z,4.30
2018-07-19T17:15:33.960Z,4.10
2018-07-19T17:18:04.794Z,4.28
2018-07-19T17:20:36.073Z,4.40
2018-07-19T17:23:04.668Z,3.87
2018-07-19T17:25:39.808Z,4.35
2018-07-19T17:28:09.454Z,4.53
2018-07-19T17:30:42.930Z,3.90
2018-07-19T17:33:11.046Z,4.53
2018-07-19T17:35:43.539Z,3.95
2018-07-19T17:38:11.726Z,4.33
2018-07-19T17:40:45.489Z,4.25
2018-07-19T17:43:15.265Z,5.03
2018-07-19T17:45:57.424Z,4.78
2018-07-19T17:48:28.633Z,4.72
2018-07-19T17:50:59.157Z,4.72
2018-07-19T17:53:31.312Z,5.28
2018-07-19T17:55:59.437Z,4.75
2018-07-19T17:58:28.156Z,5.42
2018-07-19T18:00:58.043Z,4.70
2018-07-19T18:03:26.229Z,4.72
2018-07-19T18:06:08.909Z,5.08
2018-07-19T18:08:38.590Z,5.58
2018-07-19T18:11:07.769Z,4.58
2018-07-19T18:13:38.856Z,5.35
2018-07-19T18:18:43.017Z,4.62
2018-07-19T18:21:12.046Z,4.60
2018-07-19T18:23:42.149Z,4.30
2018-07-19T18:26:12.101Z,4.30
2018-07-19T18:28:40.469Z,4.87
2018-07-19T18:31:16.822Z,4.20
2018-07-19T18:33:46.662Z,4.55
2018-07-19T18:36:15.855Z,4.42
2018-07-19T18:38:44.658Z,5.60
2018-07-19T18:41:16.801Z,4.42
2018-07-19T18:43:46.414Z,4.87
2018-07-19T18:46:19.075Z,4.72
2018-07-19T18:48:47.194Z,4.90
2018-07-19T18:51:20.823Z,4.25
2018-07-19T18:53:49.550Z,4.67
2018-07-19T18:58:52.753Z,5.58
2018-07-19T19:01:26.205Z,5.20
2018-07-19T19:03:54.538Z,4.57
2018-07-19T19:06:28.942Z,4.78
2018-07-19T19:08:58.249Z,4.90
2018-07-19T19:11:31.225Z,4.65
2018-07-19T19:14:02.311Z,4.90
2018-07-19T19:16:43.209Z,4.83
2018-07-19T19:19:11.652Z,6.20
2018-07-19T19:21:41.405Z,4.95
2018-07-19T19:24:10.759Z,5.37
2018-07-19T19:26:39.103Z,7.00
2018-07-19T19:29:09.557Z,7.03
2018-07-19T19:31:41.662Z,7.87
2018-07-19T19:34:11.080Z,7.37
2018-07-19T19:36:44.396Z,7.57
2018-07-19T19:39:13.681Z,7.30
2018-07-19T19:41:54.978Z,7.67
2018-07-19T19:44:25.613Z,6.90
2018-07-19T19:46:53.955Z,6.93
2018-07-19T19:49:25.698Z,7.43
2018-07-19T19:51:58.536Z,6.67
2018-07-19T19:54:28.039Z,6.00
2018-07-19T19:56:57.532Z,5.43
2018-07-19T19:59:27.604Z,5.23
2018-07-19T20:01:58.113Z,5.40
2018-07-19T20:04:27.641Z,5.40
2018-07-19T20:07:00.768Z,4.80
2018-07-19T20:09:29.097Z,5.53
2018-07-19T20:14:41.298Z,5.27
2018-07-19T20:17:09.758Z,4.83
2018-07-19T20:19:39.190Z,5.10
2018-07-19T20:22:12.951Z,5.77
2018-07-19T20:24:43.222Z,4.90
2018-07-19T20:27:14.331Z,5.07
2018-07-19T20:29:42.732Z,5.03
2018-07-19T20:32:23.623Z,7.50
2018-07-19T20:34:54.797Z,8.07
2018-07-19T20:37:23.536Z,5.80
2018-07-19T20:39:51.869Z,6.10
2018-07-19T20:42:20.226Z,5.50
2018-07-19T20:44:50.181Z,5.87
2018-07-19T20:47:21.550Z,6.27
2018-07-19T20:49:49.656Z,6.20
2018-07-19T20:52:22.767Z,5.40
2018-07-19T20:54:51.521Z,6.00
2018-07-19T20:57:19.714Z,6.27
2018-07-19T20:59:48.206Z,6.53
2018-07-19T21:02:16.594Z,5.67
2018-07-19T21:04:44.866Z,7.17
2018-07-19T21:07:13.353Z,6.23
2018-07-19T21:09:43.093Z,6.57
2018-07-19T21:12:11.677Z,5.73
2018-07-19T21:14:41.250Z,5.90
2018-07-19T21:17:11.220Z,6.13
2018-07-19T21:19:39.548Z,5.60
2018-07-19T21:22:08.793Z,6.20
2018-07-19T21:24:40.945Z,7.60
2018-07-19T21:27:11.490Z,6.43
2018-07-19T21:29:44.182Z,7.17
2018-07-19T21:32:16.069Z,6.10
2018-07-19T21:34:56.501Z,6.30
2018-07-19T21:37:25.160Z,6.93
2018-07-19T21:39:53.341Z,7.53
2018-07-19T21:42:21.527Z,6.57
2018-07-19T21:44:55.168Z,7.13
2018-07-19T21:47:23.302Z,6.90
2018-07-19T21:49:51.461Z,7.03
2018-07-19T21:52:19.860Z,6.93
2018-07-19T21:54:48.668Z,7.73
2018-07-19T21:57:16.815Z,6.60
2018-07-19T21:59:45.342Z,7.47
2018-07-19T22:02:13.820Z,6.50
2018-07-19T22:04:42.843Z,6.83
2018-07-19T22:07:13.258Z,6.20
2018-07-19T22:09:41.396Z,6.90
2018-07-19T22:12:09.574Z,6.40
2018-07-19T22:14:37.979Z,6.17
2018-07-19T22:17:06.118Z,6.13
2018-07-19T22:19:34.247Z,5.43
2018-07-19T22:22:02.665Z,6.07
2018-07-19T22:24:30.801Z,5.40
2018-07-19T22:26:59.014Z,6.17
2018-07-19T22:29:27.949Z,5.70
2018-07-19T22:31:56.261Z,5.80
2018-07-19T22:36:58.166Z,5.90
2018-07-19T22:39:26.289Z,5.90
2018-07-19T22:41:54.410Z,5.73
2018-07-19T22:44:23.549Z,6.10
2018-07-19T22:46:51.669Z,5.87
2018-07-19T22:49:22.474Z,6.17
2018-07-19T22:51:51.234Z,6.37
2018-07-19T22:54:19.660Z,6.33
2018-07-19T22:56:47.815Z,6.20
2018-07-19T22:59:16.340Z,5.47
2018-07-19T23:01:48.714Z,5.17
2018-07-19T23:04:17.056Z,5.77
2018-07-19T23:06:45.230Z,5.77
2018-07-19T23:09:13.329Z,5.63
2018-07-19T23:11:41.734Z,5.57
2018-07-19T23:14:10.666Z,5.80
2018-07-19T23:16:39.076Z,5.80
2018-07-19T23:19:07.644Z,6.67
2018-07-19T23:21:36.150Z,7.73
2018-07-19T23:24:07.885Z,7.10
2018-07-19T23:26:36.937Z,8.00
2018-07-19T23:29:09.732Z,7.90
2018-07-19T23:31:37.918Z,7.57
2018-07-19T23:34:11.316Z,7.37
2018-07-19T23:36:46.097Z,8.07
2018-07-19T23:39:20.592Z,8.17
2018-07-19T23:41:52.473Z,7.30
2018-07-19T23:44:27.465Z,8.50
2018-07-19T23:46:59.603Z,8.23
2018-07-19T23:49:27.729Z,8.17
2018-07-19T23:51:57.535Z,7.80
2018-07-19T23:54:28.081Z,8.30
2018-07-19T23:56:56.189Z,7.83
2018-07-19T23:59:26.297Z,7.40
